createdAt,value
2023-04-14T00:01:45.061Z,99478.59
2023-04-14T00:04:14.769Z,99487.13
2023-04-14T00:06:44.069Z,99481.72
2023-04-14T00:09:12.686Z,99479.75
2023-04-14T00:11:41.368Z,99477.91
2023-04-14T00:14:11.406Z,99477.69
2023-04-14T00:16:40.729Z,99475.75
2023-04-14T00:19:09.500Z,99478.13
2023-04-14T00:21:38.180Z,99485.78
2023-04-14T00:24:07.080Z,99487.31
2023-04-14T00:26:35.862Z,99493.25
2023-04-14T00:29:04.499Z,99498.34
2023-04-14T00:31:34.743Z,99501.56
2023-04-14T00:34:04.375Z,99496.16
2023-04-14T00:36:33.417Z,99491.75
2023-04-14T00:39:04.652Z,99499.47
2023-04-14T00:41:35.953Z,99493.28
2023-04-14T00:44:05.987Z,99493.19
2023-04-14T00:46:36.959Z,99503.44
2023-04-14T00:49:05.826Z,99499.88
2023-04-14T00:51:35.419Z,99499.69
2023-04-14T00:54:08.116Z,99505.59
2023-04-14T00:56:36.889Z,99501.13
2023-04-14T00:59:07.690Z,99503.63
2023-04-14T01:01:38.239Z,99511.25
2023-04-14T01:04:07.785Z,99514.59
2023-04-14T01:06:38.162Z,99521.31
2023-04-14T01:09:07.086Z,99521.19
2023-04-14T01:11:45.731Z,99523.66
2023-04-14T01:14:19.847Z,99520.97
2023-04-14T01:16:53.093Z,99526.91
2023-04-14T01:19:42.915Z,99520.75
2023-04-14T01:22:13.521Z,99528.34
2023-04-14T01:24:59.209Z,99528.16
2023-04-14T01:27:38.783Z,99535.75
2023-04-14T01:30:29.623Z,99535.69
2023-04-14T01:33:05.492Z,99533.75
2023-04-14T01:35:38.411Z,99534.44
2023-04-14T01:38:12.197Z,99536.88
2023-04-14T01:40:43.550Z,99535.84
2023-04-14T01:43:14.529Z,99540.91
2023-04-14T01:45:50.104Z,99536.50
2023-04-14T01:48:21.370Z,99532.88
2023-04-14T01:50:50.733Z,99540.66
2023-04-14T01:53:21.809Z,99531.94
2023-04-14T01:55:51.877Z,99544.06
2023-04-14T01:58:22.985Z,99534.47
2023-04-14T02:00:53.444Z,99542.16
2023-04-14T02:03:25.148Z,99542.94
2023-04-14T02:05:56.055Z,99546.34
2023-04-14T02:08:25.763Z,99535.91
2023-04-14T02:10:56.267Z,99547.03
2023-04-14T02:13:27.239Z,99534.84
2023-04-14T02:15:57.342Z,99538.28
2023-04-14T02:18:29.317Z,99542.44
2023-04-14T02:21:00.368Z,99550.91
2023-04-14T02:23:29.559Z,99549.88
2023-04-14T02:26:03.835Z,99545.34
2023-04-14T02:28:39.075Z,99548.75
2023-04-14T02:31:13.401Z,99544.34
2023-04-14T02:33:47.649Z,99552.03
2023-04-14T02:36:19.370Z,99546.72
2023-04-14T02:38:53.418Z,99550.97
2023-04-14T02:41:26.169Z,99554.22
2023-04-14T02:44:05.100Z,99553.16
2023-04-14T02:46:40.393Z,99549.56
2023-04-14T02:49:14.683Z,99552.91
2023-04-14T02:51:46.649Z,99550.22
2023-04-14T02:54:17.812Z,99556.16
2023-04-14T02:56:49.730Z,99551.00
2023-04-14T02:59:22.525Z,99542.25
2023-04-14T03:02:02.291Z,99547.31
2023-04-14T03:04:35.913Z,99549.91
2023-04-14T03:07:09.887Z,99557.53
2023-04-14T03:09:40.444Z,99556.47
2023-04-14T03:12:13.949Z,99566.75
2023-04-14T03:14:45.825Z,99560.59
2023-04-14T03:17:17.666Z,99560.47
2023-04-14T03:19:50.589Z,99552.59
2023-04-14T03:22:22.197Z,99553.34
2023-04-14T03:24:53.375Z,99546.41
2023-04-14T03:27:26.271Z,99548.91
2023-04-14T03:29:59.442Z,99554.84
2023-04-14T03:32:34.296Z,99556.34
2023-04-14T03:35:05.008Z,99564.78
2023-04-14T03:37:37.932Z,99565.53
2023-04-14T03:40:09.116Z,99566.25
2023-04-14T03:42:44.664Z,99567.91
2023-04-14T03:45:17.743Z,99562.53
2023-04-14T03:47:47.106Z,99567.50
2023-04-14T03:50:21.164Z,99568.25
2023-04-14T03:52:55.741Z,99572.50
2023-04-14T03:55:27.462Z,99572.38
2023-04-14T03:57:58.060Z,99568.81
2023-04-14T04:00:34.885Z,99569.66
2023-04-14T04:03:04.692Z,99574.00
2023-04-14T04:05:35.791Z,99570.47
2023-04-14T04:08:06.842Z,99568.69
2023-04-14T04:10:36.976Z,99565.16
2023-04-14T04:13:10.291Z,99575.50
2023-04-14T04:15:40.882Z,99576.31
2023-04-14T04:18:13.273Z,99569.44
2023-04-14T04:20:43.867Z,99577.28
2023-04-14T04:23:13.428Z,99579.03
2023-04-14T04:25:42.839Z,99583.34
2023-04-14T04:28:22.991Z,99593.69
2023-04-14T04:30:53.878Z,99592.81
2023-04-14T04:33:24.034Z,99589.38
2023-04-14T04:35:56.311Z,99583.41
2023-04-14T04:38:29.128Z,99590.34
2023-04-14T04:40:57.778Z,99592.09
2023-04-14T04:43:28.907Z,99589.53
2023-04-14T04:46:15.488Z,99591.31
2023-04-14T04:48:44.015Z,99599.94
2023-04-14T04:51:13.925Z,99593.06
2023-04-14T04:53:42.791Z,99593.06
2023-04-14T04:56:11.390Z,99593.06
2023-04-14T04:58:39.977Z,99593.19
2023-04-14T05:01:09.912Z,99593.19
2023-04-14T05:03:38.987Z,99594.13
2023-04-14T05:06:07.811Z,99598.38
2023-04-14T05:08:37.662Z,99591.44
2023-04-14T05:11:07.115Z,99587.91
2023-04-14T05:13:35.639Z,99593.06
2023-04-14T05:16:05.350Z,99593.06
2023-04-14T05:18:34.970Z,99591.31
2023-04-14T05:21:04.793Z,99593.06
2023-04-14T05:23:34.427Z,99601.66
2023-04-14T05:26:27.040Z,99611.13
2023-04-14T05:28:54.114Z,99607.63
2023-04-14T05:31:22.848Z,99609.34
2023-04-14T05:33:51.352Z,99605.88
2023-04-14T05:36:20.025Z,99607.56
2023-04-14T05:38:48.628Z,99612.00
2023-04-14T05:41:18.721Z,99605.22
2023-04-14T05:43:47.280Z,99600.97
2023-04-14T05:46:16.396Z,99602.81
2023-04-14T05:48:44.924Z,99596.91
2023-04-14T05:51:13.860Z,99602.22
2023-04-14T05:53:42.865Z,99603.19
2023-04-14T05:56:11.728Z,99605.91
2023-04-14T05:58:41.752Z,99600.88
2023-04-14T06:01:10.789Z,99607.97
2023-04-14T06:03:40.609Z,99611.47
2023-04-14T06:06:09.783Z,99609.06
2023-04-14T06:08:38.359Z,99604.97
2023-04-14T06:11:07.017Z,99611.16
2023-04-14T06:13:36.579Z,99606.19
2023-04-14T06:16:07.855Z,99602.19
2023-04-14T06:18:36.559Z,99605.03
2023-04-14T06:21:05.754Z,99593.19
2023-04-14T06:23:34.729Z,99594.41
2023-04-14T06:26:05.502Z,99589.56
2023-04-14T06:28:34.163Z,99595.97
2023-04-14T06:31:02.904Z,99591.97
2023-04-14T06:33:33.140Z,99591.41
2023-04-14T06:36:02.960Z,99588.41
2023-04-14T06:38:31.555Z,99582.66
2023-04-14T06:41:01.736Z,99589.97
2023-04-14T06:43:30.939Z,99588.56
2023-04-14T06:45:59.575Z,99584.66
2023-04-14T06:48:29.296Z,99593.66
2023-04-14T06:51:04.047Z,99594.00
2023-04-14T06:53:32.600Z,99584.84
2023-04-14T06:56:01.579Z,99591.25
2023-04-14T06:58:30.432Z,99580.28
2023-04-14T07:01:00.139Z,99575.44
2023-04-14T07:03:30.546Z,99581.00
2023-04-14T07:06:10.196Z,99581.31
2023-04-14T07:08:40.709Z,99575.59
2023-04-14T07:11:13.107Z,99573.28
2023-04-14T07:13:42.032Z,99571.75
2023-04-14T07:16:13.011Z,99563.50
2023-04-14T07:18:42.176Z,99557.75
2023-04-14T07:21:12.432Z,99564.03
2023-04-14T07:23:42.804Z,99560.03
2023-04-14T07:26:11.853Z,99568.97
2023-04-14T07:28:40.702Z,99561.44
2023-04-14T07:31:10.323Z,99553.09
2023-04-14T07:33:39.996Z,99566.41
2023-04-14T07:36:09.664Z,99563.28
2023-04-14T07:38:40.165Z,99547.97
2023-04-14T07:41:09.811Z,99556.16
2023-04-14T07:43:40.161Z,99554.66
2023-04-14T07:46:09.415Z,99548.88
2023-04-14T07:48:39.440Z,99549.94
2023-04-14T07:51:08.604Z,99550.25
2023-04-14T07:53:42.348Z,99550.53
2023-04-14T07:56:12.912Z,99550.78
2023-04-14T07:58:41.837Z,99551.06
2023-04-14T08:01:10.598Z,99547.81
2023-04-14T08:03:40.211Z,99546.22
2023-04-14T08:06:10.944Z,99545.56
2023-04-14T08:08:40.064Z,99544.00
2023-04-14T08:11:08.859Z,99539.88
2023-04-14T08:13:39.026Z,99540.06
2023-04-14T08:16:07.897Z,99541.09
2023-04-14T08:18:37.409Z,99542.16
2023-04-14T08:21:06.863Z,99545.84
2023-04-14T08:23:35.873Z,99548.66
2023-04-14T08:26:05.216Z,99548.94
2023-04-14T08:28:34.074Z,99543.91
2023-04-14T08:31:04.182Z,99539.78
2023-04-14T08:33:34.018Z,99540.00
2023-04-14T08:36:02.940Z,99534.09
2023-04-14T08:38:31.587Z,99542.13
2023-04-14T08:41:02.731Z,99540.59
2023-04-14T08:43:31.522Z,99541.66
2023-04-14T08:46:03.207Z,99541.84
2023-04-14T08:48:33.157Z,99532.44
2023-04-14T08:51:08.018Z,99530.91
2023-04-14T08:53:42.966Z,99532.88
2023-04-14T08:56:13.133Z,99533.91
2023-04-14T08:58:42.136Z,99524.47
2023-04-14T09:01:13.007Z,99529.91
2023-04-14T09:03:42.250Z,99532.66
2023-04-14T09:06:11.223Z,99525.00
2023-04-14T09:08:39.950Z,99528.66
2023-04-14T09:11:09.038Z,99530.53
2023-04-14T09:13:39.197Z,99527.25
2023-04-14T09:16:09.275Z,99526.53
2023-04-14T09:18:40.060Z,99527.59
2023-04-14T09:21:51.118Z,99522.47
2023-04-14T09:23:58.478Z,99515.66
2023-04-14T09:26:31.704Z,99525.38
2023-04-14T09:29:00.982Z,99522.81
2023-04-14T09:31:30.196Z,99516.88
2023-04-14T15:27:23.840Z,99222.38
2023-04-14T15:29:54.210Z,99218.03
2023-04-14T15:32:25.257Z,99222.97
2023-04-14T15:34:55.703Z,99222.53
2023-04-14T15:37:24.359Z,99217.97
2023-04-14T15:39:53.138Z,99217.53
2023-04-14T15:42:23.146Z,99215.38
2023-04-14T15:44:51.991Z,99209.75
2023-04-14T15:47:20.571Z,99217.59
2023-04-14T15:49:52.458Z,99217.59
2023-04-14T15:52:38.268Z,99222.34
2023-04-14T15:55:08.243Z,99214.78
2023-04-14T15:57:38.235Z,99222.53
2023-04-14T16:00:08.354Z,99218.94
2023-04-14T16:02:43.171Z,99211.94
2023-04-14T16:05:12.732Z,99209.47
2023-04-14T16:07:41.559Z,99212.88
2023-04-14T16:10:10.653Z,99214.34
2023-04-14T16:12:40.741Z,99210.03
2023-04-14T16:15:10.147Z,99217.84
2023-04-14T16:17:38.893Z,99221.88
2023-04-14T16:20:08.188Z,99213.41
2023-04-14T16:22:37.017Z,99205.03
2023-04-14T16:25:06.982Z,99219.72
2023-04-14T16:27:35.618Z,99215.09
2023-04-14T16:30:06.230Z,99206.75
2023-04-14T16:32:34.949Z,99212.75
2023-04-14T16:35:03.592Z,99220.53
2023-04-14T16:37:32.225Z,99214.09
2023-04-14T16:40:00.806Z,99218.47
2023-04-14T16:42:29.604Z,99214.09
2023-04-14T16:44:58.477Z,99208.88
2023-04-14T16:47:28.439Z,99211.69
2023-04-14T16:49:57.329Z,99206.72
2023-04-14T16:52:27.396Z,99213.06
2023-04-14T16:54:56.085Z,99211.63
2023-04-14T16:57:24.688Z,99212.06
2023-04-14T16:59:53.246Z,99215.34
2023-04-14T17:02:23.339Z,99216.78
2023-04-14T17:04:53.495Z,99205.88
2023-04-14T17:07:22.220Z,99208.31
2023-04-14T17:09:50.890Z,99214.34
2023-04-14T17:12:19.374Z,99211.50
2023-04-14T17:14:48.097Z,99209.41
2023-04-14T17:17:16.682Z,99204.63
2023-04-14T17:19:45.607Z,99215.72
2023-04-14T17:22:15.607Z,99210.88
2023-04-14T17:24:45.704Z,99206.88
2023-04-14T17:27:14.485Z,99209.94
2023-04-14T17:29:42.943Z,99209.41
2023-04-14T17:32:12.237Z,99215.91
2023-04-14T17:34:41.149Z,99214.38
2023-04-14T17:37:10.220Z,99217.34
2023-04-14T17:39:40.236Z,99221.19
2023-04-14T17:42:11.379Z,99227.66
2023-04-14T17:44:40.560Z,99218.13
2023-04-14T17:47:15.173Z,99222.78
2023-04-14T17:49:44.007Z,99222.13
2023-04-14T17:52:21.216Z,99222.28
2023-04-14T17:54:51.776Z,99220.75
2023-04-14T17:57:20.305Z,99226.22
2023-04-14T17:59:49.135Z,99227.28
2023-04-14T18:02:17.991Z,99230.09
2023-04-14T18:04:47.313Z,99228.47
2023-04-14T18:07:16.061Z,99233.94
2023-04-14T18:09:44.792Z,99237.59
2023-04-14T18:12:14.924Z,99243.88
2023-04-14T18:14:46.693Z,99250.16
2023-04-14T18:17:15.286Z,99254.72
2023-04-14T18:19:43.948Z,99253.94
2023-04-14T18:22:12.459Z,99259.34
2023-04-14T18:29:48.638Z,99269.34
2023-04-14T18:32:17.322Z,99267.69
2023-04-14T18:34:46.191Z,99274.84
2023-04-14T18:37:15.696Z,99277.53
2023-04-14T18:39:45.535Z,99272.34
2023-04-14T18:42:17.081Z,99272.41
2023-04-14T18:44:45.807Z,99275.13
2023-04-14T18:47:18.612Z,99283.06
2023-04-14T18:49:47.581Z,99285.75
2023-04-14T18:52:16.687Z,99291.94
2023-04-14T18:54:45.797Z,99298.09
2023-04-14T18:57:19.532Z,99291.13
2023-04-14T18:59:48.620Z,99293.81
2023-04-14T19:02:17.681Z,99294.69
2023-04-14T19:04:46.895Z,99297.31
2023-04-14T19:07:16.204Z,99300.81
2023-04-14T19:09:49.616Z,99299.97
2023-04-14T19:12:28.112Z,99309.63
2023-04-14T19:15:02.724Z,99301.75
2023-04-14T19:17:34.785Z,99302.66
2023-04-14T19:20:08.853Z,99307.91
2023-04-14T19:22:46.512Z,99309.66
2023-04-14T19:25:15.603Z,99306.13
2023-04-14T19:27:46.003Z,99309.66
2023-04-14T19:30:14.922Z,99306.13
2023-04-14T19:32:44.102Z,99314.88
2023-04-14T19:35:13.226Z,99314.88
2023-04-14T19:37:41.838Z,99316.59
2023-04-14T19:40:11.147Z,99320.97
2023-04-14T19:42:39.896Z,99326.19
2023-04-14T19:45:11.382Z,99323.50
2023-04-14T19:47:40.104Z,99322.59
2023-04-14T19:50:09.785Z,99321.72
2023-04-14T19:52:38.613Z,99325.19
2023-04-14T19:55:08.508Z,99322.53
2023-04-14T19:57:37.138Z,99332.16
2023-04-14T20:00:07.590Z,99326.91
2023-04-14T20:02:42.263Z,99325.94
2023-04-14T20:05:11.304Z,99322.44
2023-04-14T20:07:40.683Z,99320.66
2023-04-14T20:10:10.123Z,99328.53
2023-04-14T20:12:38.734Z,99319.72
2023-04-14T20:15:08.910Z,99324.97
2023-04-14T20:17:37.700Z,99329.31
2023-04-14T20:20:13.163Z,99323.16
2023-04-14T20:22:41.915Z,99320.53
2023-04-14T20:25:12.944Z,99319.59
2023-04-14T20:27:41.585Z,99329.16
2023-04-14T20:30:11.132Z,99327.41
2023-04-14T20:32:39.727Z,99330.81
2023-04-14T20:35:10.300Z,99328.16
2023-04-14T20:37:39.109Z,99331.59
2023-04-14T20:40:09.043Z,99326.31
2023-04-14T20:42:37.750Z,99322.75
2023-04-14T20:45:07.296Z,99327.09
2023-04-14T20:47:36.484Z,99326.19
2023-04-14T20:50:05.810Z,99332.22
2023-04-14T20:52:36.264Z,99328.69
2023-04-14T20:55:05.526Z,99338.25
2023-04-14T20:57:34.134Z,99326.84
2023-04-14T21:00:03.068Z,99336.41
2023-04-14T21:02:32.578Z,99332.00
2023-04-14T21:05:01.365Z,99341.53
2023-04-14T21:07:30.167Z,99333.63
2023-04-14T21:10:00.295Z,99337.09
2023-04-14T21:12:35.486Z,99333.53
2023-04-14T21:15:48.114Z,99334.34
2023-04-14T21:17:54.966Z,99338.63
2023-04-14T21:20:24.349Z,99335.09
2023-04-14T21:22:53.242Z,99341.97
2023-04-14T21:25:23.415Z,99338.38
2023-04-14T21:27:52.224Z,99336.53
2023-04-14T21:30:21.262Z,99329.47
2023-04-14T21:32:50.087Z,99334.66
2023-04-14T21:35:19.654Z,99329.34
2023-04-14T21:37:48.972Z,99341.50
2023-04-14T21:40:17.821Z,99338.81
2023-04-14T21:42:48.106Z,99343.94
2023-04-14T21:45:17.262Z,99336.91
2023-04-14T21:47:45.980Z,99333.34
2023-04-14T21:50:14.990Z,99328.88
2023-04-14T21:52:43.902Z,99332.25
2023-04-14T21:55:13.024Z,99338.25
2023-04-14T21:57:44.233Z,99331.94
2023-04-14T22:00:20.375Z,99337.09
2023-04-14T22:02:49.673Z,99346.56
2023-04-14T22:05:21.905Z,99345.63
2023-04-14T22:07:56.408Z,99342.03
2023-04-14T22:10:31.807Z,99342.88
2023-04-14T22:13:01.432Z,99342.84
2023-04-14T22:15:34.884Z,99343.66
2023-04-14T22:18:04.111Z,99342.75
2023-04-14T22:20:33.135Z,99336.56
2023-04-14T22:23:01.940Z,99356.56
2023-04-14T22:25:30.667Z,99346.03
2023-04-14T22:27:59.490Z,99352.91
2023-04-14T22:30:28.405Z,99348.44
2023-04-14T22:32:58.598Z,99346.63
2023-04-14T22:35:27.508Z,99350.94
2023-04-14T22:37:56.350Z,99349.97
2023-04-14T22:40:25.460Z,99352.53
2023-04-14T22:42:54.284Z,99359.41
2023-04-14T22:45:22.968Z,99354.94
2023-04-14T22:47:51.582Z,99346.97
2023-04-14T22:50:21.594Z,99355.63
2023-04-14T22:52:50.134Z,99352.06
2023-04-14T22:55:19.041Z,99355.44
2023-04-14T22:57:47.681Z,99352.78
2023-04-14T23:00:17.209Z,99354.41
2023-04-14T23:02:46.404Z,99353.38
2023-04-14T23:05:15.441Z,99355.03
2023-04-14T23:07:45.756Z,99353.19
2023-04-14T23:10:14.490Z,99357.47
2023-04-14T23:12:43.034Z,99351.28
2023-04-14T23:15:11.834Z,99359.03
2023-04-14T23:17:40.706Z,99361.56
2023-04-14T23:20:10.273Z,99358.84
2023-04-14T23:22:39.579Z,99355.28
2023-04-14T23:25:10.637Z,99358.69
2023-04-14T23:27:39.313Z,99360.38
2023-04-14T23:30:08.943Z,99359.38
2023-04-14T23:32:37.599Z,99361.88
2023-04-14T23:35:07.489Z,99358.34
2023-04-14T23:37:37.203Z,99354.75
2023-04-14T23:40:08.035Z,99353.81
2023-04-14T23:42:38.379Z,99359.00
2023-04-14T23:45:08.270Z,99358.06
2023-04-14T23:47:36.980Z,99358.84
2023-04-14T23:50:06.193Z,99349.16
2023-04-14T23:52:35.979Z,99349.97
2023-04-14T23:55:04.739Z,99350.75
2023-04-14T23:57:33.508Z,99353.31
